Time;durP1;ratioP1;P1;durP2;ratioP2;P2;SDS_P1;SDS_P2;PMS_P1;PMS_P2;Temp;Humidity;BMP_temperature;BMP_pressure;BME280_temperature;BME280_humidity;BME280_pressure;Samples;Min_cycle;Max_cycle;Signal;HPM_P1;HPM_P2
2023/12/23 00:02:18;;;;;;;3.47;2.28;;;;;;;;;;6319119;28;20185;-73
2023/12/23 00:05:22;;;;;;;5.93;3.65;;;;;;;;;;6320977;28;20048;-73
2023/12/23 00:08:24;;;;;;;5.10;2.72;;;;;;;;;;6312581;28;20067;-73
2023/12/23 00:11:31;;;;;;;4.45;2.75;;;;;;;;;;6284726;28;20044;-73
2023/12/23 00:14:33;;;;;;;5.50;3.22;;;;;;;;;;6297415;28;20044;-73
2023/12/23 00:17:35;;;;;;;3.92;2.15;;;;;;;;;;6295051;28;20028;-72
2023/12/23 00:20:38;;;;;;;2.85;2.05;;;;;;;;;;6332334;27;20112;-72
2023/12/23 00:23:40;;;;;;;7.25;3.45;;;;;;;;;;6282427;28;20638;-73
2023/12/23 00:26:42;;;;;;;3.80;2.67;;;;;;;;;;6285044;28;20071;-73
2023/12/23 00:29:44;;;;;;;3.63;2.53;;;;;;;;;;6314041;28;20044;-74
2023/12/23 00:32:47;;;;;;;4.20;3.08;;;;;;;;;;6297971;28;20047;-73
2023/12/23 00:35:49;;;;;;;3.67;2.78;;;;;;;;;;6311411;28;20040;-72
2023/12/23 00:38:51;;;;;;;4.00;2.75;;;;;;;;;;6305083;28;20046;-72
2023/12/23 00:41:53;;;;;;;5.25;2.20;;;;;;;;;;6322968;28;20035;-72
2023/12/23 00:44:56;;;;;;;3.30;2.38;;;;;;;;;;6317601;28;20052;-73
2023/12/23 00:47:59;;;;;;;3.63;2.22;;;;;;;;;;6301118;28;20518;-73
2023/12/23 00:51:02;;;;;;;2.92;2.22;;;;;;;;;;6316540;28;20032;-73
2023/12/23 00:54:04;;;;;;;4.53;2.40;;;;;;;;;;6282300;28;20664;-73
2023/12/23 00:57:07;;;;;;;6.32;2.78;;;;;;;;;;6298677;28;20050;-73
2023/12/23 01:00:09;;;;;;;4.78;2.88;;;;;;;;;;6315036;28;20052;-73
2023/12/23 01:03:12;;;;;;;4.70;2.40;;;;;;;;;;6320775;28;20059;-73
2023/12/23 01:06:14;;;;;;;3.33;2.33;;;;;;;;;;6265789;28;20047;-72
2023/12/23 01:09:16;;;;;;;3.45;2.40;;;;;;;;;;6313226;28;20818;-72
2023/12/23 01:12:18;;;;;;;3.00;1.70;;;;;;;;;;6295241;28;20043;-73
2023/12/23 01:15:20;;;;;;;4.25;2.35;;;;;;;;;;6313531;28;20048;-73
2023/12/23 01:18:23;;;;;;;4.47;1.70;;;;;;;;;;6285582;28;20055;-74
2023/12/23 01:21:25;;;;;;;3.58;2.53;;;;;;;;;;6311602;28;20047;-74
2023/12/23 01:24:27;;;;;;;4.40;2.85;;;;;;;;;;6300591;28;20740;-73
2023/12/23 01:27:30;;;;;;;5.07;3.35;;;;;;;;;;6300125;28;20052;-73
2023/12/23 01:30:32;;;;;;;4.68;2.70;;;;;;;;;;6327202;27;20109;-72
2023/12/23 01:33:35;;;;;;;5.55;3.75;;;;;;;;;;6324933;28;20132;-73
2023/12/23 01:36:37;;;;;;;20.70;10.38;;;;;;;;;;6294171;28;20438;-73
2023/12/23 01:39:39;;;;;;;10.05;5.70;;;;;;;;;;6312767;28;20259;-73
2023/12/23 01:42:42;;;;;;;7.20;4.60;;;;;;;;;;6283136;28;20280;-73
2023/12/23 01:45:45;;;;;;;5.80;3.25;;;;;;;;;;6288837;28;20074;-73
2023/12/23 01:48:48;;;;;;;6.05;2.95;;;;;;;;;;6300885;28;20543;-73
2023/12/23 01:51:50;;;;;;;3.65;2.42;;;;;;;;;;6302819;28;20043;-73
2023/12/23 01:54:52;;;;;;;8.68;5.05;;;;;;;;;;6296177;28;20505;-73
2023/12/23 01:57:54;;;;;;;6.10;2.50;;;;;;;;;;6310723;28;20494;-73
2023/12/23 02:00:56;;;;;;;6.28;2.85;;;;;;;;;;6296162;28;20040;-73
2023/12/23 02:03:59;;;;;;;3.05;2.38;;;;;;;;;;6281633;28;20047;-73
2023/12/23 02:07:01;;;;;;;3.83;2.10;;;;;;;;;;6292788;28;20082;-73
2023/12/23 02:10:03;;;;;;;6.05;2.22;;;;;;;;;;6315575;28;20119;-73
2023/12/23 02:13:21;;;;;;;3.03;2.67;;;;;;;;;;6304113;28;20051;-73
2023/12/23 02:16:23;;;;;;;33.20;12.55;;;;;;;;;;6304423;28;20056;-73
2023/12/23 02:19:25;;;;;;;13.57;4.82;;;;;;;;;;6306337;28;20044;-74
2023/12/23 02:22:28;;;;;;;9.60;3.65;;;;;;;;;;6294699;28;20495;-72
2023/12/23 02:25:30;;;;;;;40.58;23.27;;;;;;;;;;6317290;28;20134;-72
2023/12/23 02:28:36;;;;;;;26.48;13.30;;;;;;;;;;6286375;28;20156;-73
2023/12/23 02:31:39;;;;;;;59.55;32.53;;;;;;;;;;6295386;28;20044;-72
2023/12/23 02:34:41;;;;;;;5.85;3.47;;;;;;;;;;6318835;28;20055;-73
2023/12/23 02:37:44;;;;;;;7.40;4.63;;;;;;;;;;6316601;28;20744;-73
2023/12/23 02:40:46;;;;;;;4.22;2.05;;;;;;;;;;6279252;28;20039;-73
2023/12/23 02:43:48;;;;;;;15.73;7.35;;;;;;;;;;6298579;28;20070;-73
2023/12/23 02:46:50;;;;;;;8.60;5.35;;;;;;;;;;6321707;28;20127;-73
2023/12/23 02:49:52;;;;;;;31.75;10.20;;;;;;;;;;6304575;28;20134;-73
2023/12/23 02:52:56;;;;;;;15.20;6.68;;;;;;;;;;6294732;28;20069;-73
2023/12/23 02:55:58;;;;;;;7.80;4.55;;;;;;;;;;6312065;28;20047;-74
2023/12/23 02:59:00;;;;;;;39.30;13.52;;;;;;;;;;6319928;28;20036;-73
2023/12/23 03:02:02;;;;;;;43.78;17.02;;;;;;;;;;6320326;28;20044;-72
2023/12/23 03:05:05;;;;;;;15.55;5.72;;;;;;;;;;6316460;28;20060;-73
2023/12/23 03:08:07;;;;;;;2.35;1.33;;;;;;;;;;6295884;28;20055;-73
2023/12/23 03:11:09;;;;;;;1.92;1.42;;;;;;;;;;6316240;28;20430;-73
2023/12/23 03:14:11;;;;;;;4.70;2.58;;;;;;;;;;6283081;28;20048;-74
2023/12/23 03:17:15;;;;;;;3.63;2.45;;;;;;;;;;6315188;28;20056;-73
2023/12/23 03:20:17;;;;;;;3.30;1.83;;;;;;;;;;6314619;28;20047;-73
2023/12/23 03:23:19;;;;;;;4.07;2.55;;;;;;;;;;6294101;28;20043;-72
2023/12/23 03:26:21;;;;;;;4.45;2.58;;;;;;;;;;6319162;28;20118;-72
2023/12/23 03:29:24;;;;;;;3.33;1.92;;;;;;;;;;6300247;28;20055;-73
2023/12/23 03:32:26;;;;;;;3.38;1.65;;;;;;;;;;6299395;28;20043;-73
2023/12/23 03:35:29;;;;;;;3.35;2.05;;;;;;;;;;6314168;28;20031;-72
2023/12/23 03:38:32;;;;;;;3.33;2.03;;;;;;;;;;6313664;28;20043;-73
2023/12/23 03:41:34;;;;;;;13.48;4.55;;;;;;;;;;6307600;28;20043;-73
2023/12/23 03:44:36;;;;;;;9.05;4.63;;;;;;;;;;6293722;28;20149;-72
2023/12/23 03:47:41;;;;;;;5.20;3.00;;;;;;;;;;6294166;28;20113;-73
2023/12/23 03:50:43;;;;;;;9.82;3.42;;;;;;;;;;6301789;28;20058;-72
2023/12/23 03:53:45;;;;;;;12.60;4.78;;;;;;;;;;6307368;28;20055;-72
2023/12/23 03:56:47;;;;;;;6.63;3.75;;;;;;;;;;6310145;28;20509;-72
2023/12/23 03:59:53;;;;;;;4.18;2.17;;;;;;;;;;6301287;28;20040;-72
2023/12/23 04:02:55;;;;;;;5.50;3.47;;;;;;;;;;6303454;28;20442;-72
2023/12/23 04:05:57;;;;;;;3.60;2.47;;;;;;;;;;6280083;28;20227;-72
2023/12/23 04:08:59;;;;;;;1.80;1.55;;;;;;;;;;6302994;28;20032;-73
2023/12/23 04:12:02;;;;;;;3.03;1.23;;;;;;;;;;6306854;28;20119;-73
2023/12/23 04:15:07;;;;;;;2.83;1.80;;;;;;;;;;6298327;28;20043;-72
2023/12/23 04:18:09;;;;;;;2.75;1.73;;;;;;;;;;6318601;28;20031;-73
2023/12/23 04:21:11;;;;;;;6.18;2.20;;;;;;;;;;6298076;28;20047;-73
2023/12/23 04:24:14;;;;;;;4.18;2.22;;;;;;;;;;6300624;28;20681;-73
2023/12/23 04:27:17;;;;;;;4.40;2.72;;;;;;;;;;6267461;28;20197;-73
2023/12/23 04:30:19;;;;;;;3.97;2.90;;;;;;;;;;6295019;28;20589;-73
2023/12/23 04:33:23;;;;;;;6.30;2.78;;;;;;;;;;6317812;28;20055;-72
2023/12/23 04:36:25;;;;;;;6.50;2.65;;;;;;;;;;6302444;28;20518;-73
2023/12/23 04:39:28;;;;;;;6.82;4.15;;;;;;;;;;6278865;28;20192;-73
2023/12/23 04:42:30;;;;;;;6.18;3.45;;;;;;;;;;6289436;28;20813;-73
2023/12/23 04:45:32;;;;;;;68.07;27.75;;;;;;;;;;6298281;28;20064;-73
2023/12/23 04:48:34;;;;;;;66.38;31.50;;;;;;;;;;6309523;28;21295;-72
2023/12/23 04:51:36;;;;;;;29.23;13.30;;;;;;;;;;6295580;28;20126;-73
2023/12/23 04:54:38;;;;;;;6.82;4.38;;;;;;;;;;6297611;28;20054;-72
2023/12/23 04:57:41;;;;;;;15.75;6.28;;;;;;;;;;6311245;28;20063;-72
2023/12/23 05:00:43;;;;;;;5.68;3.42;;;;;;;;;;6296858;28;20566;-72
2023/12/23 05:03:45;;;;;;;7.00;5.50;;;;;;;;;;6280582;28;20052;-72
2023/12/23 05:06:47;;;;;;;8.30;5.00;;;;;;;;;;6322609;28;20515;-73
2023/12/23 05:09:49;;;;;;;27.27;10.80;;;;;;;;;;6272412;28;20048;-72
2023/12/23 05:12:51;;;;;;;26.27;13.15;;;;;;;;;;6315113;28;20161;-72
2023/12/23 05:15:53;;;;;;;10.55;6.07;;;;;;;;;;6319865;28;20189;-72
2023/12/23 05:18:55;;;;;;;7.30;4.05;;;;;;;;;;6302094;28;20035;-72
2023/12/23 05:21:58;;;;;;;8.13;3.92;;;;;;;;;;6316038;28;20035;-72
2023/12/23 05:25:01;;;;;;;4.18;2.92;;;;;;;;;;6303224;28;20462;-72
2023/12/23 05:28:04;;;;;;;4.53;2.10;;;;;;;;;;6304457;28;20047;-73
2023/12/23 05:31:06;;;;;;;9.02;4.45;;;;;;;;;;6299088;28;20546;-74
2023/12/23 05:34:08;;;;;;;9.43;5.13;;;;;;;;;;6284166;28;20055;-72
2023/12/23 05:37:10;;;;;;;5.35;3.15;;;;;;;;;;6296470;28;20074;-72
2023/12/23 05:40:12;;;;;;;4.85;2.15;;;;;;;;;;6305914;28;20441;-71
2023/12/23 05:43:14;;;;;;;4.07;2.17;;;;;;;;;;6292838;28;20044;-71
2023/12/23 05:46:16;;;;;;;3.05;2.15;;;;;;;;;;6311611;28;20082;-72
2023/12/23 05:49:18;;;;;;;3.05;1.83;;;;;;;;;;6276368;28;20055;-71
2023/12/23 05:52:24;;;;;;;3.80;2.25;;;;;;;;;;6307209;28;20133;-72
2023/12/23 05:55:26;;;;;;;5.45;2.13;;;;;;;;;;6295811;28;20048;-69
2023/12/23 05:58:29;;;;;;;4.15;2.05;;;;;;;;;;6295940;28;20059;-71
2023/12/23 06:01:31;;;;;;;11.20;5.18;;;;;;;;;;6290510;28;20449;-71
2023/12/23 06:04:33;;;;;;;8.55;3.15;;;;;;;;;;6291165;28;20048;-71
2023/12/23 06:07:35;;;;;;;9.25;4.13;;;;;;;;;;6307037;28;20040;-70
2023/12/23 06:10:38;;;;;;;10.88;4.07;;;;;;;;;;6302556;28;20043;-70
2023/12/23 06:13:55;;;;;;;10.23;4.43;;;;;;;;;;6313376;28;20048;-70
2023/12/23 06:16:57;;;;;;;7.15;3.30;;;;;;;;;;6306140;28;20051;-70
2023/12/23 06:19:59;;;;;;;5.15;3.20;;;;;;;;;;6326898;28;20059;-70
2023/12/23 06:23:01;;;;;;;3.85;2.30;;;;;;;;;;6316570;28;20715;-70
2023/12/23 06:26:03;;;;;;;4.47;2.40;;;;;;;;;;6297508;28;20084;-71
2023/12/23 06:29:06;;;;;;;4.10;2.15;;;;;;;;;;6314109;28;20040;-70
2023/12/23 06:32:08;;;;;;;7.20;4.00;;;;;;;;;;6307514;28;20083;-71
2023/12/23 06:35:10;;;;;;;4.03;2.25;;;;;;;;;;6316618;28;20044;-71
2023/12/23 06:38:13;;;;;;;3.15;2.28;;;;;;;;;;6298964;28;20068;-70
2023/12/23 06:41:15;;;;;;;4.03;2.47;;;;;;;;;;6305277;28;20045;-71
2023/12/23 06:44:18;;;;;;;4.38;2.25;;;;;;;;;;6291055;28;20055;-70
2023/12/23 06:47:20;;;;;;;3.78;2.10;;;;;;;;;;6311637;28;20048;-71
2023/12/23 06:50:22;;;;;;;4.63;2.17;;;;;;;;;;6312417;28;20044;-70
2023/12/23 06:53:24;;;;;;;3.92;2.40;;;;;;;;;;6319415;28;20151;-70
2023/12/23 06:56:27;;;;;;;3.80;1.90;;;;;;;;;;6323452;28;20040;-71
2023/12/23 06:59:29;;;;;;;6.57;2.05;;;;;;;;;;6323975;28;20049;-71
2023/12/23 07:02:31;;;;;;;2.50;1.95;;;;;;;;;;6317525;28;20039;-70
2023/12/23 07:05:33;;;;;;;2.88;1.98;;;;;;;;;;6305727;28;20507;-70
2023/12/23 07:08:35;;;;;;;3.25;2.33;;;;;;;;;;6316071;28;20189;-70
2023/12/23 07:11:37;;;;;;;6.68;2.55;;;;;;;;;;6309183;28;20059;-70
2023/12/23 07:14:39;;;;;;;3.90;1.80;;;;;;;;;;6296325;28;20064;-70
2023/12/23 07:17:41;;;;;;;5.25;2.20;;;;;;;;;;6316567;28;20078;-71
2023/12/23 07:20:43;;;;;;;4.03;2.72;;;;;;;;;;6299425;28;20119;-71
2023/12/23 07:23:45;;;;;;;18.30;7.68;;;;;;;;;;6307100;28;20044;-71
2023/12/23 07:26:47;;;;;;;12.15;6.82;;;;;;;;;;6319903;28;20549;-71
2023/12/23 07:29:49;;;;;;;3.70;3.00;;;;;;;;;;6318811;28;20749;-71
2023/12/23 07:32:51;;;;;;;3.47;1.75;;;;;;;;;;6282149;28;20050;-71
2023/12/23 07:35:54;;;;;;;6.35;3.38;;;;;;;;;;6303786;28;20048;-71
2023/12/23 07:38:56;;;;;;;5.22;2.60;;;;;;;;;;6305637;28;20040;-71
2023/12/23 07:41:58;;;;;;;3.33;2.10;;;;;;;;;;6307725;28;20068;-71
2023/12/23 07:45:00;;;;;;;3.42;2.08;;;;;;;;;;6322465;28;20105;-71
2023/12/23 07:48:03;;;;;;;8.68;3.05;;;;;;;;;;6316711;28;20498;-68
2023/12/23 07:51:08;;;;;;;5.72;3.03;;;;;;;;;;6321211;28;20048;-71
2023/12/23 07:54:10;;;;;;;5.45;3.10;;;;;;;;;;6317079;28;20094;-71
2023/12/23 07:57:12;;;;;;;7.60;3.85;;;;;;;;;;6312759;28;20047;-71
2023/12/23 08:00:15;;;;;;;8.95;3.80;;;;;;;;;;6323803;28;20067;-72
2023/12/23 08:03:18;;;;;;;10.07;5.03;;;;;;;;;;6314132;28;20048;-71
2023/12/23 08:06:20;;;;;;;10.68;5.18;;;;;;;;;;6316045;28;20352;-70
2023/12/23 08:09:22;;;;;;;12.52;5.95;;;;;;;;;;6316681;28;20581;-71
2023/12/23 08:12:25;;;;;;;6.75;4.78;;;;;;;;;;6301138;28;20048;-70
2023/12/23 08:15:29;;;;;;;9.15;5.35;;;;;;;;;;6299949;28;20519;-70
2023/12/23 08:18:31;;;;;;;7.68;3.00;;;;;;;;;;6315859;28;20048;-70
2023/12/23 08:21:33;;;;;;;7.57;5.00;;;;;;;;;;6319287;28;20110;-70
2023/12/23 08:24:35;;;;;;;8.05;4.53;;;;;;;;;;6319763;28;20047;-70
2023/12/23 08:27:38;;;;;;;7.95;5.03;;;;;;;;;;6303186;28;20626;-71
2023/12/23 08:30:40;;;;;;;12.15;7.80;;;;;;;;;;6323420;28;20050;-71
2023/12/23 08:33:42;;;;;;;9.45;6.13;;;;;;;;;;6311587;28;20627;-70
2023/12/23 08:36:45;;;;;;;9.65;6.10;;;;;;;;;;6308388;28;20109;-70
2023/12/23 08:39:47;;;;;;;4.85;3.45;;;;;;;;;;6297882;28;20036;-71
2023/12/23 08:42:48;;;;;;;5.22;3.20;;;;;;;;;;6316231;28;20040;-71
2023/12/23 08:45:51;;;;;;;3.08;2.30;;;;;;;;;;6316006;28;20062;-71
2023/12/23 08:48:53;;;;;;;4.72;2.55;;;;;;;;;;6297670;28;20044;-70
2023/12/23 08:51:55;;;;;;;6.70;3.72;;;;;;;;;;6296042;28;20747;-70
2023/12/23 08:54:57;;;;;;;5.13;3.50;;;;;;;;;;6299548;28;20038;-70
2023/12/23 08:58:00;;;;;;;8.07;5.43;;;;;;;;;;6309358;28;20050;-71
2023/12/23 09:01:02;;;;;;;4.60;3.47;;;;;;;;;;6315260;28;20051;-71
2023/12/23 09:04:04;;;;;;;6.45;5.18;;;;;;;;;;6313880;28;20130;-70
2023/12/23 09:07:08;;;;;;;5.55;3.60;;;;;;;;;;6303647;28;20051;-71
2023/12/23 09:10:10;;;;;;;6.10;3.42;;;;;;;;;;6298715;28;20040;-71
2023/12/23 09:13:12;;;;;;;11.75;6.55;;;;;;;;;;6304579;28;20048;-71
2023/12/23 09:16:14;;;;;;;19.25;7.30;;;;;;;;;;6310923;28;20051;-71
2023/12/23 09:19:17;;;;;;;7.47;4.93;;;;;;;;;;6328972;27;20048;-71
2023/12/23 09:22:19;;;;;;;9.23;5.28;;;;;;;;;;6312151;28;20558;-71
2023/12/23 09:25:21;;;;;;;13.15;7.00;;;;;;;;;;6320587;28;20122;-71
2023/12/23 09:28:23;;;;;;;4.80;2.58;;;;;;;;;;6283219;28;20055;-71
2023/12/23 09:31:25;;;;;;;5.85;4.63;;;;;;;;;;6298465;28;20784;-72
2023/12/23 09:34:28;;;;;;;11.18;5.13;;;;;;;;;;6317674;28;20035;-71
2023/12/23 09:37:30;;;;;;;11.20;3.80;;;;;;;;;;6315737;28;20060;-72
2023/12/23 09:40:32;;;;;;;6.90;3.33;;;;;;;;;;6301859;28;20118;-71
2023/12/23 09:43:34;;;;;;;5.65;2.97;;;;;;;;;;6298506;28;20055;-71
2023/12/23 09:46:39;;;;;;;7.78;5.47;;;;;;;;;;6314553;28;20052;-71
2023/12/23 09:49:42;;;;;;;8.85;6.18;;;;;;;;;;6288155;28;20056;-71
2023/12/23 09:52:47;;;;;;;10.27;4.85;;;;;;;;;;6322505;28;20124;-70
2023/12/23 09:55:49;;;;;;;;;;;;;;;;;;6275528;28;20164;-71
2023/12/23 09:58:51;;;;;;;6.65;3.35;;;;;;;;;;6329575;27;19927;-71
2023/12/23 10:01:54;;;;;;;6.22;3.83;;;;;;;;;;6320187;28;20680;-72
2023/12/23 10:04:56;;;;;;;6.30;3.55;;;;;;;;;;6298097;28;20152;-72
2023/12/23 10:07:59;;;;;;;7.82;5.35;;;;;;;;;;6310987;28;20462;-72
2023/12/23 10:11:01;;;;;;;5.50;4.05;;;;;;;;;;6262461;28;20094;-71
2023/12/23 10:14:03;;;;;;;6.95;3.83;;;;;;;;;;6283913;28;20124;-72
2023/12/23 10:17:05;;;;;;;5.53;3.03;;;;;;;;;;6314532;28;20048;-71
2023/12/23 10:20:11;;;;;;;5.63;3.25;;;;;;;;;;6278946;28;20613;-71
2023/12/23 10:23:13;;;;;;;3.55;2.53;;;;;;;;;;6324002;28;20036;-72
2023/12/23 10:26:15;;;;;;;3.75;2.78;;;;;;;;;;6298707;28;20063;-72
2023/12/23 10:29:19;;;;;;;4.13;3.67;;;;;;;;;;6298071;28;20047;-73
2023/12/23 10:32:27;;;;;;;6.85;4.35;;;;;;;;;;6310165;28;20043;-73
2023/12/23 10:35:33;;;;;;;5.63;3.17;;;;;;;;;;6302061;28;20047;-73
2023/12/23 10:38:38;;;;;;;3.58;2.80;;;;;;;;;;6280324;28;20082;-73
2023/12/23 10:42:06;;;;;;;3.47;1.95;;;;;;;;;;6259426;28;20047;-73
2023/12/23 10:45:10;;;;;;;2.95;2.00;;;;;;;;;;6310469;28;20052;-73
2023/12/23 10:48:13;;;;;;;5.43;2.95;;;;;;;;;;6282211;28;20092;-73
2023/12/23 10:51:15;;;;;;;3.45;2.28;;;;;;;;;;6272503;28;20080;-73
2023/12/23 10:54:18;;;;;;;2.78;2.35;;;;;;;;;;6299554;28;20082;-73
2023/12/23 10:57:24;;;;;;;1.98;1.77;;;;;;;;;;6295310;28;20181;-73
2023/12/23 11:00:27;;;;;;;3.13;2.20;;;;;;;;;;6289936;28;20127;-73
2023/12/23 11:03:30;;;;;;;4.07;1.50;;;;;;;;;;6313910;28;20048;-73
2023/12/23 11:06:41;;;;;;;3.90;2.30;;;;;;;;;;6318172;28;20098;-73
2023/12/23 11:09:45;;;;;;;4.85;3.53;;;;;;;;;;6308886;28;20044;-73
2023/12/23 11:12:48;;;;;;;3.88;1.73;;;;;;;;;;6276550;28;20073;-73
2023/12/23 11:15:50;;;;;;;2.10;1.65;;;;;;;;;;6300361;28;20047;-73
2023/12/23 11:18:52;;;;;;;2.75;1.48;;;;;;;;;;6308792;28;20549;-73
2023/12/23 11:22:23;;;;;;;4.20;2.38;;;;;;;;;;6299326;28;20070;-73
2023/12/23 11:25:39;;;;;;;2.95;2.35;;;;;;;;;;6303288;28;20447;-73
2023/12/23 11:28:41;;;;;;;2.88;1.30;;;;;;;;;;6287467;28;20140;-73
2023/12/23 11:31:43;;;;;;;4.65;1.98;;;;;;;;;;6307542;28;20048;-73
2023/12/23 11:34:46;;;;;;;2.42;1.92;;;;;;;;;;6302621;28;20035;-73
2023/12/23 11:37:58;;;;;;;6.00;2.67;;;;;;;;;;6296828;28;20082;-73
2023/12/23 11:41:01;;;;;;;3.90;2.75;;;;;;;;;;6314942;28;20044;-73
2023/12/23 11:44:04;;;;;;;5.80;4.90;;;;;;;;;;6292071;28;20036;-73
2023/12/23 11:47:08;;;;;;;3.75;2.35;;;;;;;;;;6276017;28;20047;-72
2023/12/23 11:50:14;;;;;;;3.42;3.00;;;;;;;;;;6326825;28;20568;-73
2023/12/23 11:53:17;;;;;;;4.68;2.63;;;;;;;;;;6318651;28;20048;-73
2023/12/23 11:56:19;;;;;;;4.88;3.67;;;;;;;;;;6287822;28;20121;-73
2023/12/23 11:59:22;;;;;;;5.57;3.30;;;;;;;;;;6316624;28;20079;-73
2023/12/23 12:02:25;;;;;;;4.07;2.90;;;;;;;;;;6279099;28;20708;-72
2023/12/23 12:05:29;;;;;;;4.03;2.28;;;;;;;;;;6323647;28;20060;-72
2023/12/23 12:08:31;;;;;;;4.95;2.75;;;;;;;;;;6299386;28;20537;-72
2023/12/23 12:11:34;;;;;;;3.28;2.63;;;;;;;;;;6323150;28;20049;-72
2023/12/23 12:14:36;;;;;;;4.50;2.63;;;;;;;;;;6295081;28;20091;-73
2023/12/23 12:17:39;;;;;;;5.43;2.90;;;;;;;;;;6296620;28;20036;-73
2023/12/23 12:20:42;;;;;;;4.45;3.03;;;;;;;;;;6299689;28;20032;-73
2023/12/23 12:23:44;;;;;;;3.10;2.35;;;;;;;;;;6294101;28;20113;-73
2023/12/23 12:26:52;;;;;;;4.95;3.38;;;;;;;;;;6325638;28;20624;-73
2023/12/23 12:29:54;;;;;;;2.30;2.00;;;;;;;;;;6314749;28;20049;-73
2023/12/23 12:32:59;;;;;;;3.28;2.28;;;;;;;;;;6319315;28;20066;-73
2023/12/23 12:36:04;;;;;;;3.50;2.20;;;;;;;;;;6315246;28;20060;-73
2023/12/23 12:39:06;;;;;;;2.78;2.25;;;;;;;;;;6274864;28;20056;-73
2023/12/23 12:42:08;;;;;;;4.43;2.67;;;;;;;;;;6262047;28;20112;-73
2023/12/23 12:45:11;;;;;;;3.00;2.33;;;;;;;;;;6291628;28;20036;-73
2023/12/23 12:48:13;;;;;;;3.53;2.55;;;;;;;;;;6316741;28;20044;-72
2023/12/23 12:51:16;;;;;;;3.30;3.00;;;;;;;;;;6277228;28;20493;-73
2023/12/23 12:54:20;;;;;;;2.97;2.58;;;;;;;;;;6281199;28;20052;-73
2023/12/23 12:57:22;;;;;;;4.70;2.05;;;;;;;;;;6282965;28;20074;-73
2023/12/23 13:00:26;;;;;;;3.95;2.67;;;;;;;;;;6298622;28;20052;-73
2023/12/23 13:03:31;;;;;;;5.35;3.17;;;;;;;;;;6314689;28;20938;-72
2023/12/23 13:06:33;;;;;;;4.18;2.72;;;;;;;;;;6285964;28;20056;-73
2023/12/23 13:09:35;;;;;;;3.85;2.85;;;;;;;;;;6310774;28;20612;-73
2023/12/23 13:12:38;;;;;;;5.22;3.80;;;;;;;;;;6313368;28;20060;-73
2023/12/23 13:15:41;;;;;;;4.65;3.08;;;;;;;;;;6296967;28;20040;-73
2023/12/23 13:18:44;;;;;;;6.70;4.50;;;;;;;;;;6310697;28;20126;-73
2023/12/23 13:21:59;;;;;;;3.75;3.15;;;;;;;;;;6304574;28;20108;-73
2023/12/23 13:25:02;;;;;;;2.47;2.17;;;;;;;;;;6292330;28;20044;-73
2023/12/23 13:28:04;;;;;;;3.42;2.80;;;;;;;;;;6308180;28;20135;-73
2023/12/23 13:31:06;;;;;;;2.92;2.45;;;;;;;;;;6315655;28;20044;-73
2023/12/23 13:34:09;;;;;;;6.50;3.10;;;;;;;;;;6301230;28;20048;-73
2023/12/23 13:37:12;;;;;;;3.83;2.92;;;;;;;;;;6286937;28;20099;-73
2023/12/23 13:40:15;;;;;;;5.93;4.20;;;;;;;;;;6264472;28;20060;-73
2023/12/23 13:43:17;;;;;;;8.77;4.13;;;;;;;;;;6299357;28;20052;-73
2023/12/23 13:46:19;;;;;;;8.35;5.03;;;;;;;;;;6292667;28;20058;-73
2023/12/23 13:49:21;;;;;;;11.50;5.35;;;;;;;;;;6321517;28;20079;-73
2023/12/23 13:52:25;;;;;;;10.50;3.75;;;;;;;;;;6278506;28;20055;-72
2023/12/23 13:55:27;;;;;;;8.85;3.38;;;;;;;;;;6312625;28;20055;-73
2023/12/23 13:58:29;;;;;;;7.45;4.47;;;;;;;;;;6296846;28;20052;-73
2023/12/23 14:01:31;;;;;;;8.50;4.45;;;;;;;;;;6330091;27;21088;-73
2023/12/23 14:04:35;;;;;;;7.45;4.38;;;;;;;;;;6319478;28;20035;-73
2023/12/23 14:07:38;;;;;;;9.13;5.10;;;;;;;;;;6277821;28;20040;-72
2023/12/23 14:10:40;;;;;;;12.70;7.85;;;;;;;;;;6310134;28;20082;-73
2023/12/23 14:13:42;;;;;;;11.13;5.95;;;;;;;;;;6290745;28;20154;-72
2023/12/23 14:16:46;;;;;;;12.20;6.78;;;;;;;;;;6307516;28;20058;-72
2023/12/23 14:19:48;;;;;;;6.43;4.05;;;;;;;;;;6292026;28;20519;-73
2023/12/23 14:22:51;;;;;;;11.82;7.45;;;;;;;;;;6312819;28;20044;-72
2023/12/23 14:25:54;;;;;;;7.25;5.07;;;;;;;;;;6276091;28;20475;-73
2023/12/23 14:28:58;;;;;;;6.15;5.10;;;;;;;;;;6319881;28;20051;-73
2023/12/23 14:32:00;;;;;;;4.13;3.20;;;;;;;;;;6310988;28;20044;-73
2023/12/23 14:35:03;;;;;;;4.95;2.38;;;;;;;;;;6300242;28;20048;-72
2023/12/23 14:38:06;;;;;;;6.90;4.72;;;;;;;;;;6320613;28;20811;-72
2023/12/23 14:41:08;;;;;;;8.15;4.55;;;;;;;;;;6281190;28;20652;-72
2023/12/23 14:44:11;;;;;;;12.23;6.47;;;;;;;;;;6297085;28;20059;-72
2023/12/23 14:47:15;;;;;;;8.32;5.32;;;;;;;;;;6313059;28;20047;-71
2023/12/23 14:50:19;;;;;;;10.95;6.15;;;;;;;;;;6278903;28;20051;-72
2023/12/23 14:53:21;;;;;;;6.72;5.75;;;;;;;;;;6301269;28;20705;-72
2023/12/23 14:56:23;;;;;;;19.40;9.40;;;;;;;;;;6300061;28;20471;-71
2023/12/23 14:59:29;;;;;;;18.23;9.15;;;;;;;;;;6311020;28;20040;-71
2023/12/23 15:02:32;;;;;;;14.13;6.10;;;;;;;;;;6313728;28;20051;-72
2023/12/23 15:05:34;;;;;;;15.77;6.95;;;;;;;;;;6303417;28;20087;-73
2023/12/23 15:08:37;;;;;;;11.68;6.20;;;;;;;;;;6284257;28;20096;-73
2023/12/23 15:11:39;;;;;;;5.20;3.83;;;;;;;;;;6318222;28;20052;-72
2023/12/23 15:14:41;;;;;;;8.43;4.22;;;;;;;;;;6318131;28;20084;-72
2023/12/23 15:17:43;;;;;;;8.90;5.93;;;;;;;;;;6277374;28;20192;-74
2023/12/23 15:20:45;;;;;;;8.88;4.68;;;;;;;;;;6318042;28;20078;-73
2023/12/23 15:23:47;;;;;;;7.30;5.05;;;;;;;;;;6317837;28;20628;-74
2023/12/23 15:26:49;;;;;;;8.15;4.78;;;;;;;;;;6315798;28;20481;-74
2023/12/23 15:29:51;;;;;;;6.43;4.35;;;;;;;;;;6283112;28;20104;-73
2023/12/23 15:32:53;;;;;;;5.32;3.75;;;;;;;;;;6277857;28;20051;-73
2023/12/23 15:35:56;;;;;;;6.30;4.75;;;;;;;;;;6272135;28;20350;-73
2023/12/23 15:38:58;;;;;;;5.90;4.38;;;;;;;;;;6298322;28;20031;-73
2023/12/23 15:42:02;;;;;;;5.03;4.00;;;;;;;;;;6296261;28;20859;-73
2023/12/23 15:45:05;;;;;;;5.57;3.50;;;;;;;;;;6297805;28;20048;-73
2023/12/23 15:48:07;;;;;;;5.97;3.85;;;;;;;;;;6299347;28;20044;-73
2023/12/23 15:51:10;;;;;;;6.80;5.25;;;;;;;;;;6309294;28;20031;-73
2023/12/23 15:54:12;;;;;;;6.18;4.75;;;;;;;;;;6315589;28;20047;-73
2023/12/23 15:57:15;;;;;;;5.55;4.60;;;;;;;;;;6315341;28;21235;-74
2023/12/23 16:00:18;;;;;;;5.22;3.20;;;;;;;;;;6316241;28;20138;-73
2023/12/23 16:03:20;;;;;;;6.93;4.18;;;;;;;;;;6316555;28;20081;-73
2023/12/23 16:06:22;;;;;;;6.30;4.47;;;;;;;;;;6316269;28;20161;-73
2023/12/23 16:09:25;;;;;;;5.88;3.75;;;;;;;;;;6313661;28;20141;-74
2023/12/23 16:12:27;;;;;;;8.40;5.03;;;;;;;;;;6315129;28;20102;-74
2023/12/23 16:15:29;;;;;;;12.25;6.00;;;;;;;;;;6297889;28;20044;-74
2023/12/23 16:18:32;;;;;;;10.77;6.60;;;;;;;;;;6316862;28;20048;-73
2023/12/23 16:21:35;;;;;;;9.10;6.60;;;;;;;;;;6308000;28;20055;-73
2023/12/23 16:24:37;;;;;;;7.50;5.32;;;;;;;;;;6300628;28;20051;-73
2023/12/23 16:27:39;;;;;;;10.30;5.03;;;;;;;;;;6296002;28;20076;-74
2023/12/23 16:30:41;;;;;;;9.13;5.70;;;;;;;;;;6295998;28;20123;-73
2023/12/23 16:33:43;;;;;;;11.60;6.68;;;;;;;;;;6317126;28;20079;-73
2023/12/23 16:36:45;;;;;;;9.85;4.70;;;;;;;;;;6291257;28;20036;-73
2023/12/23 16:39:47;;;;;;;8.77;4.25;;;;;;;;;;6295618;28;20054;-72
2023/12/23 16:42:49;;;;;;;8.98;4.90;;;;;;;;;;6316808;28;20032;-73
2023/12/23 16:45:52;;;;;;;12.15;8.70;;;;;;;;;;6296195;28;20144;-73
2023/12/23 16:48:54;;;;;;;10.20;6.22;;;;;;;;;;6280808;28;20108;-74
2023/12/23 16:51:58;;;;;;;8.07;5.72;;;;;;;;;;6323293;28;20039;-73
2023/12/23 16:55:00;;;;;;;14.02;9.85;;;;;;;;;;6299703;28;20044;-73
2023/12/23 16:58:02;;;;;;;11.20;7.85;;;;;;;;;;6277830;28;20138;-73
2023/12/23 17:01:05;;;;;;;29.33;16.45;;;;;;;;;;6285735;28;20842;-73
2023/12/23 17:04:07;;;;;;;21.27;11.77;;;;;;;;;;6296287;28;20085;-73
2023/12/23 17:07:09;;;;;;;15.30;9.52;;;;;;;;;;6286493;28;20040;-73
2023/12/23 17:10:11;;;;;;;18.85;13.45;;;;;;;;;;6309146;28;20040;-73
2023/12/23 17:13:14;;;;;;;21.08;10.32;;;;;;;;;;6281303;28;20052;-73
2023/12/23 17:16:16;;;;;;;14.45;8.90;;;;;;;;;;6304751;28;20048;-73
2023/12/23 17:19:18;;;;;;;21.45;11.75;;;;;;;;;;6316075;28;20040;-73
2023/12/23 17:22:21;;;;;;;15.13;10.55;;;;;;;;;;6293572;28;20146;-72
2023/12/23 17:25:27;;;;;;;21.77;13.10;;;;;;;;;;6298600;28;20426;-73
2023/12/23 17:28:34;;;;;;;11.32;7.38;;;;;;;;;;6316806;28;20051;-74
2023/12/23 17:31:36;;;;;;;24.90;15.10;;;;;;;;;;6321379;28;20051;-73
2023/12/23 17:34:38;;;;;;;37.03;19.40;;;;;;;;;;6311432;28;20123;-74
2023/12/23 17:37:40;;;;;;;65.75;34.08;;;;;;;;;;6314526;28;20044;-73
2023/12/23 17:40:44;;;;;;;21.88;12.30;;;;;;;;;;6314501;28;20044;-73
2023/12/23 17:43:46;;;;;;;19.70;12.50;;;;;;;;;;6302560;28;20051;-73
2023/12/23 17:46:48;;;;;;;22.52;13.75;;;;;;;;;;6279712;28;20048;-74
2023/12/23 17:49:51;;;;;;;42.70;21.20;;;;;;;;;;6300428;28;20047;-73
2023/12/23 17:52:53;;;;;;;13.45;9.95;;;;;;;;;;6289371;28;20102;-73
2023/12/23 17:55:55;;;;;;;18.92;12.63;;;;;;;;;;6313666;28;20548;-73
2023/12/23 17:58:58;;;;;;;17.60;11.95;;;;;;;;;;6312439;28;20044;-73
2023/12/23 18:02:00;;;;;;;23.42;16.02;;;;;;;;;;6289746;28;20072;-73
2023/12/23 18:05:03;;;;;;;19.80;13.68;;;;;;;;;;6291436;28;20036;-73
2023/12/23 18:08:05;;;;;;;44.08;27.50;;;;;;;;;;6296603;28;20040;-73
2023/12/23 18:11:07;;;;;;;17.92;10.95;;;;;;;;;;6303235;28;20048;-73